This is the latest recevied weather packets stored in our database for station/object KE7JGM-4. If no packets are shown the sender has not sent any weather packets the latest 10 day(s).
| Time | Temp. | Humidity | Pressure | Rain* | Wind** | Luminosity | Snow |
|---|---|---|---|---|---|---|---|
| 1777430717 | 13.89° C | 23% | 1021.9 hPa | 0 mm | - | - | - |
| 1777429817 | 14.44° C | 22% | 1021.3 hPa | 0 mm | - | - | - |
| 1777428017 | 15.56° C | 20% | 1020.5 hPa | 0 mm | - | - | - |
| 1777427137 | 16.11° C | 19% | 1020.9 hPa | 0 mm | - | - | - |
| 1777425317 | 17.22° C | 18% | 1019.9 hPa | 0 mm | - | - | - |
| 1777422617 | 18.33° C | 16% | 1020.2 hPa | 0 mm | - | - | - |
| 1777419017 | 18.89° C | 16% | 1020.7 hPa | 0 mm | - | - | - |
| 1777412716 | 19.44° C | 18% | 1022.1 hPa | 0 mm | - | - | - |
| 1777410917 | 19.44° C | 17% | 1022.4 hPa | 0 mm | - | - | - |
| 1777407317 | 18.89° C | 13% | 1022.9 hPa | 0 mm | - | - | - |
| 1777392016 | 12.22° C | 36% | 1024.2 hPa | 0 mm | - | - | - |
| 1777387517 | 8.89° C | 44% | 1023 hPa | 0 mm | - | - | - |
| 1777378518 | 1.11° C | 65% | 1019.9 hPa | 0 mm | - | - | - |
| 1777377618 | 1.11° C | 65% | 1019.8 hPa | 0 mm | - | - | - |
| 1777366837 | 3.33° C | 58% | 1020.6 hPa | 0 mm | - | - | - |
| 1777363217 | 4.44° C | 53% | 1020.9 hPa | 0 mm | - | - | - |
| 1777359637 | 5.56° C | 49% | 1021.1 hPa | 0 mm | - | - | - |
| 1777356017 | 7.22° C | 44% | 1021.2 hPa | 0 mm | - | - | - |
| 1777341617 | 11.67° C | 32% | 1017.4 hPa | 0 mm | - | - | - |
| 1777324516 | 14.44° C | 22% | 1018.7 hPa | 0 mm | - | - | - |
| 1777317316 | 13.89° C | 23% | 1019.2 hPa | 0 mm | - | - | - |
| 1777315516 | 13.33° C | 28% | 1019.5 hPa | 0 mm | - | - | - |
| 1777311016 | 12.22° C | 28% | 1020.1 hPa | 0 mm | - | - | - |
| 1777303816 | 9.44° C | 33% | 1018.9 hPa | 0 mm | - | - | - |
| 1777293916 | 1.67° C | 77% | 1014.9 hPa | 0 mm | - | - | - |
* Rain latest hour (hover to see other rain measurements)
** Current wind speed in m/s (hover to see current wind gust speed)